createdAt,value
2023-04-14T00:00:23.130Z,51.59
2023-04-14T00:01:24.673Z,51.91
2023-04-14T00:02:26.382Z,51.62
2023-04-14T00:03:28.130Z,51.43
2023-04-14T00:04:29.908Z,51.29
2023-04-14T00:05:32.320Z,51.61
2023-04-14T00:06:33.917Z,51.24
2023-04-14T00:07:35.618Z,51.61
2023-04-14T00:08:37.234Z,52.28
2023-04-14T00:09:38.993Z,52.34
2023-04-14T00:10:40.743Z,52.68
2023-04-14T00:11:42.299Z,52.42
2023-04-14T00:12:43.891Z,53.40
2023-04-14T00:13:45.621Z,53.41
2023-04-14T00:14:47.209Z,53.60
2023-04-14T00:15:48.768Z,53.34
2023-04-14T00:16:50.410Z,53.65
2023-04-14T00:17:53.110Z,53.52
2023-04-14T00:18:54.786Z,53.36
2023-04-14T00:19:56.305Z,53.31
2023-04-14T00:20:58.045Z,52.85
2023-04-14T00:21:59.526Z,53.22
2023-04-14T00:23:01.063Z,52.87
2023-04-14T00:24:02.748Z,52.78
2023-04-14T00:25:04.648Z,52.74
2023-04-14T00:26:06.244Z,53.22
2023-04-14T00:27:07.880Z,53.29
2023-04-14T00:28:09.419Z,53.10
2023-04-14T00:29:10.937Z,53.33
2023-04-14T00:30:12.663Z,53.39
2023-04-14T00:31:14.239Z,53.37
2023-04-14T00:32:16.774Z,53.26
2023-04-14T00:33:18.288Z,52.82
2023-04-14T00:34:19.844Z,53.26
2023-04-14T00:35:21.524Z,53.79
2023-04-14T00:36:23.044Z,53.68
2023-04-14T00:37:24.606Z,53.54
2023-04-14T00:38:26.300Z,53.67
2023-04-14T00:39:27.826Z,53.71
2023-04-14T00:40:30.399Z,53.69
2023-04-14T00:41:35.168Z,53.41
2023-04-14T00:42:46.459Z,53.43
2023-04-14T00:43:48.364Z,53.96
2023-04-14T00:44:49.935Z,53.67
2023-04-14T00:45:52.512Z,53.97
2023-04-14T00:46:54.870Z,53.62
2023-04-14T00:47:58.382Z,53.70
2023-04-14T00:49:00.762Z,53.96
2023-04-14T00:50:03.996Z,53.78
2023-04-14T00:51:05.791Z,53.76
2023-04-14T00:52:07.381Z,53.72
2023-04-14T00:53:08.960Z,53.88
2023-04-14T00:54:11.511Z,54.09
2023-04-14T00:55:15.700Z,53.73
2023-04-14T00:56:18.617Z,53.95
2023-04-14T00:57:20.322Z,54.51
2023-04-14T00:58:21.984Z,54.95
2023-04-14T00:59:23.623Z,55.27
2023-04-14T01:00:25.545Z,55.27
2023-04-14T01:01:29.251Z,55.22
2023-04-14T01:02:32.086Z,55.08
2023-04-14T01:03:36.319Z,55.18
2023-04-14T01:04:52.572Z,55.45
2023-04-14T01:05:56.474Z,55.92
2023-04-14T01:06:58.165Z,55.97
2023-04-14T01:08:00.469Z,55.42
2023-04-14T01:09:02.934Z,55.19
2023-04-14T01:10:05.923Z,55.08
2023-04-14T01:11:10.440Z,55.38
2023-04-14T01:12:39.926Z,55.43
2023-04-14T01:13:53.853Z,56.10
2023-04-14T01:15:26.145Z,55.76
2023-04-14T01:16:35.030Z,55.51
2023-04-14T01:17:49.909Z,54.92
2023-04-14T01:19:16.886Z,55.25
2023-04-14T01:20:27.189Z,55.08
2023-04-14T01:21:33.201Z,54.82
2023-04-14T01:22:42.080Z,54.81
2023-04-14T01:24:20.952Z,54.79
2023-04-14T01:25:56.125Z,54.50
2023-04-14T01:27:13.163Z,54.64
2023-04-14T01:28:41.055Z,54.64
2023-04-14T01:30:00.624Z,54.90
2023-04-14T01:31:14.050Z,54.72
2023-04-14T01:32:22.239Z,54.69
2023-04-14T01:33:27.558Z,54.49
2023-04-14T01:34:38.571Z,54.39
2023-04-14T01:35:45.793Z,54.38
2023-04-14T01:37:13.756Z,54.36
2023-04-14T01:38:22.434Z,54.05
2023-04-14T01:39:31.981Z,54.46
2023-04-14T01:40:36.109Z,54.76
2023-04-14T01:41:42.223Z,54.91
2023-04-14T01:42:47.573Z,54.77
2023-04-14T01:43:54.062Z,55.25
2023-04-14T01:44:58.741Z,54.51
2023-04-14T01:46:07.093Z,54.69
2023-04-14T01:47:12.711Z,55.41
2023-04-14T01:48:16.030Z,54.81
2023-04-14T01:49:21.631Z,54.55
2023-04-14T01:50:24.393Z,54.72
2023-04-14T01:51:28.385Z,55.26
2023-04-14T01:52:31.029Z,55.63
2023-04-14T01:53:33.722Z,55.12
2023-04-14T01:54:38.606Z,55.16
2023-04-14T01:55:41.405Z,55.37
2023-04-14T01:56:43.849Z,54.97
2023-04-14T01:57:48.588Z,55.14
2023-04-14T01:58:51.731Z,54.79
2023-04-14T01:59:57.623Z,54.76
2023-04-14T02:00:59.959Z,54.73
2023-04-14T02:02:03.783Z,54.71
2023-04-14T02:03:06.928Z,54.02
2023-04-14T02:04:10.042Z,54.28
2023-04-14T02:05:13.454Z,54.03
2023-04-14T02:06:16.751Z,53.43
2023-04-14T02:07:21.799Z,53.48
2023-04-14T02:08:24.519Z,53.63
2023-04-14T02:09:28.150Z,54.30
2023-04-14T02:10:30.514Z,54.80
2023-04-14T02:11:34.768Z,54.34
2023-04-14T02:12:41.161Z,54.96
2023-04-14T02:13:43.859Z,54.45
2023-04-14T02:14:46.853Z,54.79
2023-04-14T02:15:51.609Z,54.22
2023-04-14T02:16:54.224Z,54.91
2023-04-14T02:17:58.381Z,55.14
2023-04-14T02:19:01.254Z,55.12
2023-04-14T02:20:04.090Z,55.06
2023-04-14T02:21:06.436Z,55.62
2023-04-14T02:22:08.088Z,55.20
2023-04-14T02:23:09.735Z,55.45
2023-04-14T02:24:11.551Z,55.54
2023-04-14T02:25:13.326Z,55.60
2023-04-14T02:26:18.666Z,55.51
2023-04-14T02:27:29.075Z,55.55
2023-04-14T02:28:38.004Z,55.50
2023-04-14T02:29:44.857Z,55.23
2023-04-14T02:30:51.644Z,55.14
2023-04-14T02:31:59.769Z,55.64
2023-04-14T02:33:13.820Z,55.40
2023-04-14T02:34:18.893Z,54.94
2023-04-14T02:35:27.363Z,54.85
2023-04-14T02:36:36.446Z,54.75
2023-04-14T02:37:42.137Z,54.75
2023-04-14T02:38:52.353Z,54.89
2023-04-14T02:40:00.846Z,55.02
2023-04-14T02:41:08.620Z,55.47
2023-04-14T02:42:16.745Z,55.46
2023-04-14T02:43:26.475Z,56.11
2023-04-14T02:44:32.364Z,55.71
2023-04-14T02:45:36.326Z,56.36
2023-04-14T02:46:42.032Z,55.75
2023-04-14T02:47:47.817Z,55.90
2023-04-14T02:48:51.676Z,55.91
2023-04-14T02:49:54.763Z,55.79
2023-04-14T02:50:59.008Z,55.95
2023-04-14T02:52:02.171Z,55.96
2023-04-14T02:53:04.681Z,55.66
2023-04-14T02:54:06.814Z,55.81
2023-04-14T02:55:10.817Z,55.91
2023-04-14T02:56:13.107Z,55.71
2023-04-14T02:57:15.050Z,55.87
2023-04-14T02:58:17.570Z,56.03
2023-04-14T02:59:21.243Z,55.19
2023-04-14T03:00:23.861Z,56.05
2023-04-14T03:01:26.901Z,56.17
2023-04-14T03:02:29.169Z,55.91
2023-04-14T03:03:35.418Z,56.47
2023-04-14T03:04:38.979Z,56.14
2023-04-14T03:05:41.529Z,56.71
2023-04-14T03:06:44.141Z,56.55
2023-04-14T03:07:47.584Z,56.33
2023-04-14T03:08:51.623Z,56.36
2023-04-14T03:09:53.696Z,56.86
2023-04-14T03:10:56.118Z,57.12
2023-04-14T03:11:58.921Z,57.21
2023-04-14T03:13:03.704Z,56.94
2023-04-14T03:14:07.114Z,56.68
2023-04-14T03:15:10.403Z,56.83
2023-04-14T03:16:13.297Z,55.44
2023-04-14T03:17:17.517Z,54.19
2023-04-14T03:18:21.203Z,53.83
2023-04-14T03:19:23.963Z,53.21
2023-04-14T03:20:26.833Z,52.55
2023-04-14T03:21:30.169Z,52.25
2023-04-14T03:22:36.171Z,52.01
2023-04-14T03:23:39.509Z,51.83
2023-04-14T03:24:42.769Z,52.42
2023-04-14T03:25:46.650Z,51.78
2023-04-14T03:26:49.604Z,52.55
2023-04-14T03:27:53.193Z,52.79
2023-04-14T03:28:57.100Z,52.72
2023-04-14T03:30:03.425Z,52.89
2023-04-14T03:31:07.975Z,53.17
2023-04-14T03:32:11.250Z,53.33
2023-04-14T03:33:18.105Z,53.78
2023-04-14T03:34:21.048Z,54.09
2023-04-14T03:35:23.429Z,54.06
2023-04-14T03:36:26.428Z,54.14
2023-04-14T03:37:28.907Z,54.22
2023-04-14T03:38:33.187Z,54.48
2023-04-14T03:39:36.809Z,54.88
2023-04-14T03:40:41.231Z,55.57
2023-04-14T03:41:47.958Z,55.66
2023-04-14T03:42:50.300Z,55.70
2023-04-14T03:43:56.823Z,56.08
2023-04-14T03:45:00.658Z,55.71
2023-04-14T03:46:05.381Z,55.95
2023-04-14T03:47:08.732Z,55.90
2023-04-14T03:48:14.560Z,55.98
2023-04-14T03:49:17.774Z,55.90
2023-04-14T03:50:23.158Z,55.89
2023-04-14T03:51:27.650Z,55.83
2023-04-14T03:52:33.568Z,56.34
2023-04-14T03:53:37.029Z,56.41
2023-04-14T03:54:41.991Z,56.85
2023-04-14T03:55:46.282Z,56.98
2023-04-14T03:56:49.399Z,56.82
2023-04-14T03:57:52.209Z,56.73
2023-04-14T03:58:55.674Z,56.77
2023-04-14T03:59:58.423Z,56.82
2023-04-14T04:01:01.911Z,56.66
2023-04-14T04:02:04.523Z,56.76
2023-04-14T04:03:06.453Z,57.05
2023-04-14T04:04:10.090Z,57.27
2023-04-14T04:05:12.887Z,57.09
2023-04-14T04:06:15.265Z,57.38
2023-04-14T04:07:18.971Z,57.36
2023-04-14T04:08:23.021Z,58.39
2023-04-14T04:09:25.409Z,57.67
2023-04-14T04:10:27.033Z,57.87
2023-04-14T04:11:30.259Z,57.96
2023-04-14T04:12:32.948Z,57.71
2023-04-14T04:13:36.225Z,58.44
2023-04-14T04:14:40.568Z,58.02
2023-04-14T04:15:42.628Z,57.95
2023-04-14T04:16:47.375Z,58.05
2023-04-14T04:17:51.378Z,58.23
2023-04-14T04:18:54.746Z,57.44
2023-04-14T04:19:58.642Z,57.46
2023-04-14T04:21:01.416Z,56.94
2023-04-14T04:22:04.125Z,56.97
2023-04-14T04:23:07.660Z,57.56
2023-04-14T04:24:11.280Z,57.50
2023-04-14T04:25:13.933Z,57.66
2023-04-14T04:26:16.929Z,56.83
2023-04-14T04:27:27.810Z,57.35
2023-04-14T04:28:30.796Z,56.96
2023-04-14T04:29:32.649Z,57.05
2023-04-14T04:30:39.451Z,57.30
2023-04-14T04:31:41.421Z,57.13
2023-04-14T04:32:43.144Z,56.97
2023-04-14T04:33:46.763Z,57.20
2023-04-14T04:34:49.659Z,56.94
2023-04-14T04:35:52.474Z,56.84
2023-04-14T04:36:54.399Z,56.72
2023-04-14T04:37:58.135Z,55.27
2023-04-14T04:38:59.993Z,55.62
2023-04-14T04:40:01.938Z,54.88
2023-04-14T04:41:03.544Z,55.13
2023-04-14T04:42:06.933Z,55.39
2023-04-14T04:43:08.493Z,55.68
2023-04-14T04:44:10.046Z,55.77
2023-04-14T04:45:12.091Z,56.18
2023-04-14T04:46:44.331Z,55.41
2023-04-14T04:47:46.175Z,55.70
2023-04-14T04:48:52.611Z,55.98
2023-04-14T04:49:54.110Z,55.69
2023-04-14T04:50:55.773Z,55.74
2023-04-14T04:51:57.432Z,56.21
2023-04-14T04:52:58.942Z,55.89
2023-04-14T04:54:00.634Z,55.90
2023-04-14T04:55:02.215Z,55.71
2023-04-14T04:56:04.028Z,56.39
2023-04-14T04:57:05.676Z,56.15
2023-04-14T04:58:07.187Z,56.21
2023-04-14T04:59:09.042Z,56.01
2023-04-14T05:00:10.970Z,56.08
2023-04-14T05:01:12.829Z,56.33
2023-04-14T05:02:14.459Z,56.31
2023-04-14T05:03:16.608Z,56.56
2023-04-14T05:04:18.267Z,56.65
2023-04-14T05:05:19.829Z,56.56
2023-04-14T05:06:21.829Z,56.10
2023-04-14T05:07:23.484Z,56.06
2023-04-14T05:08:24.991Z,56.16
2023-04-14T05:09:27.558Z,55.82
2023-04-14T05:10:29.239Z,56.09
2023-04-14T05:11:31.755Z,56.15
2023-04-14T05:12:33.273Z,55.23
2023-04-14T05:13:34.804Z,55.96
2023-04-14T05:14:36.600Z,55.36
2023-04-14T05:15:38.136Z,55.74
2023-04-14T05:16:39.721Z,55.37
2023-04-14T05:17:41.294Z,55.77
2023-04-14T05:18:43.144Z,54.75
2023-04-14T05:19:45.078Z,54.51
2023-04-14T05:20:46.769Z,54.72
2023-04-14T05:21:48.325Z,54.41
2023-04-14T05:22:49.887Z,53.95
2023-04-14T05:23:51.484Z,53.51
2023-04-14T05:24:53.168Z,54.09
2023-04-14T05:26:07.228Z,53.73
2023-04-14T05:27:19.328Z,53.37
2023-04-14T05:28:20.958Z,53.75
2023-04-14T05:29:22.576Z,53.16
2023-04-14T05:30:24.468Z,52.81
2023-04-14T05:31:26.101Z,52.46
2023-04-14T05:32:29.133Z,52.19
2023-04-14T05:33:31.043Z,52.47
2023-04-14T05:34:32.578Z,53.06
2023-04-14T05:35:34.173Z,53.60
2023-04-14T05:36:35.899Z,53.77
2023-04-14T05:37:37.445Z,53.18
2023-04-14T05:38:40.087Z,54.00
2023-04-14T05:39:41.822Z,53.97
2023-04-14T05:40:43.355Z,54.51
2023-04-14T05:41:44.981Z,54.12
2023-04-14T05:42:46.509Z,54.67
2023-04-14T05:43:48.040Z,54.67
2023-04-14T05:44:49.555Z,55.19
2023-04-14T05:45:51.384Z,55.03
2023-04-14T05:46:53.032Z,55.06
2023-04-14T05:47:54.713Z,55.13
2023-04-14T05:48:57.642Z,55.14
2023-04-14T05:49:59.413Z,55.72
2023-04-14T05:51:01.381Z,55.84
2023-04-14T05:52:02.972Z,55.79
2023-04-14T05:53:04.499Z,55.28
2023-04-14T05:54:06.029Z,56.00
2023-04-14T05:55:08.004Z,55.38
2023-04-14T05:56:11.599Z,56.08
2023-04-14T05:57:13.191Z,56.14
2023-04-14T05:58:15.003Z,55.07
2023-04-14T05:59:17.337Z,56.37
2023-04-14T06:00:19.393Z,56.57
2023-04-14T06:01:20.976Z,56.44
2023-04-14T06:02:22.845Z,56.67
2023-04-14T06:03:24.865Z,56.08
2023-04-14T06:04:26.633Z,56.17
2023-04-14T06:05:28.412Z,56.20
2023-04-14T06:06:32.500Z,56.71
2023-04-14T06:07:34.616Z,56.80
2023-04-14T06:08:36.136Z,56.79
2023-04-14T06:09:37.678Z,56.92
2023-04-14T06:10:39.301Z,56.43
2023-04-14T06:11:40.879Z,57.23
2023-04-14T06:12:42.419Z,56.92
2023-04-14T06:13:43.944Z,56.73
2023-04-14T06:14:45.601Z,56.69
2023-04-14T06:15:47.158Z,56.83
2023-04-14T06:16:50.793Z,56.89
2023-04-14T06:17:52.668Z,56.52
2023-04-14T06:18:54.274Z,56.61
2023-04-14T06:19:56.408Z,56.16
2023-04-14T06:20:57.963Z,57.10
2023-04-14T06:21:59.507Z,57.20
2023-04-14T06:23:01.113Z,56.93
2023-04-14T06:24:02.659Z,56.84
2023-04-14T06:25:04.524Z,57.30
2023-04-14T06:26:06.766Z,56.95
2023-04-14T06:27:09.298Z,57.16
2023-04-14T06:28:10.950Z,57.52
2023-04-14T06:29:12.633Z,57.50
2023-04-14T06:30:16.860Z,57.55
2023-04-14T06:31:18.616Z,57.91
2023-04-14T06:32:20.497Z,57.63
2023-04-14T06:33:22.411Z,57.77
2023-04-14T06:34:24.359Z,58.09
2023-04-14T06:35:32.848Z,57.69
2023-04-14T06:36:34.919Z,57.73
2023-04-14T06:37:36.506Z,57.67
2023-04-14T06:38:38.061Z,57.46
2023-04-14T06:39:39.610Z,57.31
2023-04-14T06:40:41.189Z,57.66
2023-04-14T06:41:43.882Z,57.92
2023-04-14T06:42:45.532Z,57.25
2023-04-14T06:43:47.055Z,57.00
2023-04-14T06:44:48.610Z,57.46
2023-04-14T06:45:50.998Z,57.23
2023-04-14T06:46:52.787Z,57.51
2023-04-14T06:47:56.058Z,57.01
2023-04-14T06:48:57.739Z,57.14
2023-04-14T06:49:59.290Z,57.60
2023-04-14T06:51:00.913Z,57.94
2023-04-14T06:52:02.769Z,58.22
2023-04-14T06:53:06.148Z,57.77
2023-04-14T06:54:07.744Z,57.86
2023-04-14T06:55:09.651Z,58.57
2023-04-14T06:56:11.311Z,58.65
2023-04-14T06:57:12.860Z,58.70
2023-04-14T06:58:14.449Z,58.83
2023-04-14T06:59:16.030Z,58.76
2023-04-14T07:00:17.852Z,59.08
2023-04-14T07:01:19.507Z,58.91
2023-04-14T07:02:21.124Z,59.47
2023-04-14T07:03:23.063Z,59.56
2023-04-14T07:04:24.817Z,59.86
2023-04-14T07:05:26.366Z,59.12
2023-04-14T07:06:27.946Z,59.95
2023-04-14T07:07:29.612Z,60.24
2023-04-14T07:08:33.086Z,59.97
2023-04-14T07:09:35.027Z,60.34
2023-04-14T07:10:36.613Z,60.42
2023-04-14T07:11:38.206Z,60.61
2023-04-14T07:12:39.771Z,60.28
2023-04-14T07:13:41.977Z,60.12
2023-04-14T07:14:50.893Z,60.57
2023-04-14T07:15:52.471Z,60.23
2023-04-14T07:16:54.139Z,60.23
2023-04-14T07:17:59.335Z,60.45
2023-04-14T07:19:01.479Z,60.89
2023-04-14T07:20:03.205Z,60.76
2023-04-14T07:21:05.000Z,60.77
2023-04-14T07:22:08.176Z,59.95
2023-04-14T07:23:09.723Z,60.46
2023-04-14T07:24:13.106Z,60.51
2023-04-14T07:25:15.681Z,59.93
2023-04-14T07:26:17.227Z,59.67
2023-04-14T07:27:18.743Z,59.31
2023-04-14T07:28:22.112Z,59.29
2023-04-14T07:29:23.752Z,58.97
2023-04-14T07:30:26.454Z,59.19
2023-04-14T07:31:28.061Z,58.92
2023-04-14T07:32:29.710Z,58.83
2023-04-14T07:33:31.417Z,58.96
2023-04-14T07:34:33.307Z,59.13
2023-04-14T07:35:34.965Z,58.83
2023-04-14T07:36:36.697Z,59.08
2023-04-14T07:37:38.475Z,59.42
2023-04-14T07:38:40.111Z,59.50
2023-04-14T07:39:41.711Z,59.78
2023-04-14T07:40:43.271Z,58.97
2023-04-14T07:41:44.864Z,58.85
2023-04-14T07:42:46.981Z,59.41
2023-04-14T07:43:48.614Z,59.67
2023-04-14T07:44:50.194Z,58.88
2023-04-14T07:45:54.609Z,59.10
2023-04-14T07:46:56.138Z,59.88
2023-04-14T07:47:58.164Z,59.19
2023-04-14T07:48:59.931Z,58.65
2023-04-14T07:50:01.635Z,59.23
2023-04-14T07:51:04.608Z,59.10
2023-04-14T07:52:06.163Z,58.80
2023-04-14T07:53:07.884Z,59.12
2023-04-14T07:54:09.696Z,59.08
2023-04-14T07:55:11.238Z,59.14
2023-04-14T07:56:13.114Z,59.35
2023-04-14T07:57:14.680Z,59.01
2023-04-14T07:58:16.552Z,58.88
2023-04-14T07:59:18.073Z,58.96
2023-04-14T08:00:19.788Z,59.11
2023-04-14T08:01:21.321Z,59.32
2023-04-14T08:02:23.032Z,59.19
2023-04-14T08:03:25.023Z,59.56
2023-04-14T08:04:27.149Z,60.31
2023-04-14T08:05:28.806Z,60.39
2023-04-14T08:06:30.543Z,60.68
2023-04-14T08:07:32.364Z,60.77
2023-04-14T08:08:34.986Z,60.95
2023-04-14T08:09:36.545Z,62.00
2023-04-14T08:10:39.221Z,61.99
2023-04-14T08:11:41.415Z,62.21
2023-04-14T08:12:42.960Z,62.03
2023-04-14T08:13:44.660Z,62.25
2023-04-14T08:14:47.799Z,62.67
2023-04-14T08:15:49.554Z,62.75
2023-04-14T08:16:51.428Z,62.13
2023-04-14T08:17:53.089Z,62.66
2023-04-14T08:18:56.544Z,62.42
2023-04-14T08:19:59.458Z,62.42
2023-04-14T08:21:01.054Z,62.50
2023-04-14T08:22:03.433Z,62.17
2023-04-14T08:23:05.048Z,62.69
2023-04-14T08:24:07.331Z,62.44
2023-04-14T08:25:12.153Z,62.60
2023-04-14T08:26:14.020Z,62.57
2023-04-14T08:27:15.967Z,62.73
2023-04-14T08:28:17.506Z,63.46
2023-04-14T08:29:19.045Z,63.24
2023-04-14T08:30:20.702Z,62.70
2023-04-14T08:31:25.735Z,63.09
2023-04-14T08:32:28.498Z,62.91
2023-04-14T08:33:30.353Z,62.80
2023-04-14T08:34:32.056Z,62.58
2023-04-14T08:35:40.844Z,62.64
2023-04-14T08:36:44.054Z,62.69
2023-04-14T08:37:45.848Z,62.53
2023-04-14T08:38:47.434Z,62.50
2023-04-14T08:39:49.622Z,62.73
2023-04-14T08:40:55.269Z,62.18
2023-04-14T08:41:58.153Z,61.96
2023-04-14T08:42:59.762Z,62.62
2023-04-14T08:44:01.718Z,63.12
2023-04-14T08:45:03.381Z,63.58
2023-04-14T08:46:06.088Z,63.75
2023-04-14T08:47:08.253Z,64.65
2023-04-14T08:48:15.158Z,65.00
2023-04-14T08:49:28.737Z,65.19
2023-04-14T08:50:40.992Z,64.77
2023-04-14T08:51:44.980Z,64.88
2023-04-14T08:52:49.490Z,64.70
2023-04-14T08:53:53.565Z,63.97
2023-04-14T08:54:57.058Z,64.60
2023-04-14T08:56:02.896Z,64.76
2023-04-14T08:57:05.211Z,63.82
2023-04-14T08:58:08.383Z,64.56
2023-04-14T08:59:11.577Z,64.27
2023-04-14T09:00:14.342Z,64.38
2023-04-14T09:01:16.697Z,64.74
2023-04-14T09:02:19.299Z,64.95
2023-04-14T09:03:21.929Z,64.86
2023-04-14T09:04:24.017Z,63.30
2023-04-14T09:05:26.394Z,63.30
2023-04-14T09:06:28.699Z,62.54
2023-04-14T09:07:30.387Z,62.99
2023-04-14T09:08:34.765Z,62.06
2023-04-14T09:09:36.780Z,61.44
2023-04-14T09:10:38.597Z,61.73
2023-04-14T09:11:41.038Z,61.30
2023-04-14T09:12:42.777Z,61.90
2023-04-14T09:13:44.790Z,61.06
2023-04-14T09:14:46.682Z,60.42
2023-04-14T09:15:49.847Z,59.13
2023-04-14T09:16:53.929Z,59.43
2023-04-14T09:17:55.712Z,59.75
2023-04-14T09:19:06.487Z,59.54
2023-04-14T09:20:38.964Z,59.18
2023-04-14T09:21:53.352Z,58.58
2023-04-14T09:22:53.495Z,57.54
2023-04-14T09:23:55.153Z,57.56
2023-04-14T09:24:57.363Z,56.98
2023-04-14T09:25:59.052Z,56.66
2023-04-14T09:27:05.444Z,56.76
2023-04-14T09:28:07.835Z,57.28
2023-04-14T09:29:09.463Z,57.44
2023-04-14T09:30:11.978Z,58.08
2023-04-14T09:31:13.789Z,58.09
2023-04-14T09:32:15.686Z,58.85
2023-04-14T09:34:28.548Z,57.33
2023-04-14T09:35:51.117Z,56.96
2023-04-14T09:37:09.774Z,57.45
2023-04-14T09:38:11.566Z,56.84
2023-04-14T09:39:17.755Z,56.95
2023-04-14T09:40:29.748Z,56.76
2023-04-14T09:41:32.658Z,56.98
2023-04-14T09:42:42.566Z,57.01
2023-04-14T09:43:45.752Z,57.14
2023-04-14T09:44:53.380Z,56.68
2023-04-14T09:45:56.083Z,56.81
2023-04-14T09:47:06.333Z,56.46
2023-04-14T09:48:09.159Z,56.27
2023-04-14T09:49:10.890Z,56.13
2023-04-14T09:50:12.412Z,56.87
2023-04-14T09:51:14.125Z,56.22
2023-04-14T09:52:15.726Z,56.24
2023-04-14T09:53:28.511Z,56.26
2023-04-14T09:54:30.414Z,56.14
2023-04-14T09:55:31.959Z,54.55
2023-04-14T09:56:33.559Z,54.56
2023-04-14T09:57:37.443Z,54.32
2023-04-14T09:58:40.246Z,53.95
2023-04-14T09:59:42.026Z,53.38
2023-04-14T10:00:45.637Z,52.46
2023-04-14T10:01:47.253Z,52.49
2023-04-14T10:03:01.485Z,52.21
2023-04-14T10:04:04.459Z,50.58
2023-04-14T10:05:07.001Z,50.21
2023-04-14T10:06:10.733Z,49.52
2023-04-14T10:07:12.361Z,49.37
2023-04-14T10:08:14.151Z,49.08
2023-04-14T10:09:22.760Z,48.59
2023-04-14T10:10:24.264Z,48.52
2023-04-14T10:11:30.710Z,48.72
2023-04-14T10:12:32.626Z,48.86
2023-04-14T10:13:34.197Z,49.22
2023-04-14T10:14:42.889Z,49.67
2023-04-14T10:15:44.511Z,50.82
2023-04-14T10:16:46.168Z,52.89
2023-04-14T10:17:47.755Z,54.40
2023-04-14T10:18:49.575Z,55.57
2023-04-14T10:19:51.363Z,56.24
2023-04-14T10:20:52.928Z,57.46
2023-04-14T10:21:54.684Z,58.15
2023-04-14T10:22:56.796Z,58.91
2023-04-14T10:23:58.512Z,61.22
2023-04-14T10:25:00.352Z,62.00
2023-04-14T10:26:03.573Z,62.92
2023-04-14T10:27:06.124Z,62.99
2023-04-14T10:28:08.009Z,64.23
2023-04-14T10:29:09.569Z,65.04
2023-04-14T10:30:12.136Z,67.25
2023-04-14T10:31:28.641Z,68.42
2023-04-14T10:32:35.509Z,69.51
2023-04-14T10:33:40.412Z,69.08
2023-04-14T10:34:59.609Z,69.29
2023-04-14T10:36:02.001Z,69.03
2023-04-14T10:37:16.523Z,68.73
2023-04-14T10:38:18.136Z,68.77
2023-04-14T10:39:24.487Z,67.93
2023-04-14T10:40:26.414Z,68.99
2023-04-14T10:41:36.555Z,68.79
2023-04-14T10:42:54.958Z,69.07
2023-04-14T10:43:56.620Z,69.31
2023-04-14T10:45:08.878Z,70.57
2023-04-14T10:46:10.534Z,69.40
2023-04-14T10:47:23.468Z,70.43
2023-04-14T10:48:26.902Z,72.19
2023-04-14T10:49:35.803Z,71.41
2023-04-14T10:50:47.734Z,70.86
2023-04-14T10:51:50.012Z,70.88
2023-04-14T10:52:56.083Z,70.31
2023-04-14T10:53:58.161Z,69.91
2023-04-14T10:55:08.810Z,70.23
2023-04-14T10:56:11.282Z,69.61
2023-04-14T10:57:14.388Z,69.79
2023-04-14T10:58:20.979Z,68.69
2023-04-14T10:59:22.566Z,68.46
2023-04-14T11:00:27.502Z,69.42
2023-04-14T11:01:32.378Z,69.16
2023-04-14T11:02:35.234Z,68.08
2023-04-14T11:03:44.973Z,69.11
2023-04-14T11:05:06.502Z,69.79
2023-04-14T11:06:07.992Z,69.08
2023-04-14T11:07:09.683Z,68.23
2023-04-14T11:08:27.077Z,69.42
2023-04-14T11:09:32.149Z,69.03
2023-04-14T11:10:34.021Z,68.17
2023-04-14T11:11:35.589Z,70.25
2023-04-14T11:12:43.407Z,69.96
2023-04-14T11:13:45.507Z,69.88
2023-04-14T11:14:47.423Z,70.23
2023-04-14T11:15:58.359Z,70.48
2023-04-14T11:17:05.133Z,70.10
2023-04-14T11:18:17.266Z,69.80
2023-04-14T11:19:19.096Z,69.77
2023-04-14T11:20:23.553Z,70.07
2023-04-14T11:21:26.345Z,69.67
2023-04-14T11:22:41.836Z,68.24
2023-04-14T11:23:44.009Z,67.99
2023-04-14T11:24:49.027Z,68.14
2023-04-14T11:25:51.555Z,66.53
2023-04-14T11:26:54.872Z,66.81
2023-04-14T11:27:56.779Z,64.72
2023-04-14T11:29:00.424Z,65.05
2023-04-14T11:30:02.247Z,65.67
2023-04-14T11:31:06.212Z,67.51
2023-04-14T11:32:07.742Z,67.20
2023-04-14T11:33:09.459Z,70.00
2023-04-14T11:34:11.039Z,68.62
2023-04-14T11:35:12.615Z,69.32
2023-04-14T11:36:14.255Z,69.95
2023-04-14T11:37:15.901Z,68.70
2023-04-14T11:38:17.449Z,68.64
2023-04-14T11:39:19.490Z,70.32
2023-04-14T11:40:21.781Z,69.55
2023-04-14T11:41:25.846Z,70.07
2023-04-14T11:42:28.415Z,70.12
2023-04-14T11:43:32.754Z,69.74
2023-04-14T11:44:35.053Z,71.24
2023-04-14T11:45:42.681Z,70.43
2023-04-14T11:46:44.424Z,68.37
2023-04-14T11:48:04.226Z,69.22
2023-04-14T11:49:05.965Z,67.13
2023-04-14T11:50:08.121Z,69.11
2023-04-14T11:51:09.724Z,70.01
2023-04-14T11:52:11.327Z,71.61
2023-04-14T11:53:15.902Z,71.33
2023-04-14T11:54:18.555Z,72.41
2023-04-14T11:55:20.287Z,70.24
2023-04-14T11:56:21.945Z,70.71
2023-04-14T11:57:24.224Z,72.09
2023-04-14T11:58:27.268Z,71.70
2023-04-14T11:59:29.603Z,73.59
2023-04-14T12:00:31.361Z,73.51
2023-04-14T12:01:33.348Z,72.20
2023-04-14T12:02:36.056Z,74.35
2023-04-14T12:03:39.262Z,71.95
2023-04-14T12:04:41.468Z,71.63
2023-04-14T12:05:43.595Z,72.04
2023-04-14T12:06:45.380Z,73.34
2023-04-14T12:07:48.884Z,71.67
2023-04-14T12:08:56.882Z,72.34
2023-04-14T12:09:58.847Z,73.22
2023-04-14T12:11:13.984Z,73.08
2023-04-14T12:12:17.756Z,71.09
2023-04-14T12:13:19.526Z,72.92
2023-04-14T12:14:22.183Z,74.88
2023-04-14T12:15:28.176Z,76.79
2023-04-14T12:16:29.859Z,76.20
2023-04-14T12:17:31.780Z,75.45
2023-04-14T12:18:33.388Z,71.44
2023-04-14T12:19:36.241Z,76.63
2023-04-14T12:21:02.184Z,74.13
2023-04-14T12:22:08.149Z,76.80
2023-04-14T12:23:09.884Z,77.67
2023-04-14T12:24:11.526Z,74.81
2023-04-14T12:25:13.415Z,75.46
2023-04-14T12:26:14.994Z,79.07
2023-04-14T12:27:22.375Z,79.40
2023-04-14T12:28:29.105Z,80.52
2023-04-14T12:29:34.761Z,81.33
2023-04-14T12:30:37.798Z,80.75
2023-04-14T12:31:44.075Z,79.21
2023-04-14T12:32:46.269Z,79.55
2023-04-14T12:33:50.062Z,80.67
2023-04-14T12:34:57.965Z,80.21
2023-04-14T12:36:07.831Z,80.57
2023-04-14T12:37:11.359Z,82.96
2023-04-14T12:38:14.403Z,85.27
2023-04-14T12:39:16.007Z,83.36
2023-04-14T12:40:18.595Z,87.31
2023-04-14T12:41:24.019Z,89.49
2023-04-14T12:42:27.473Z,92.60
2023-04-14T12:43:34.743Z,94.89
2023-04-14T12:44:36.596Z,96.06
2023-04-14T12:45:46.606Z,95.87
2023-04-14T12:46:50.390Z,97.98
2023-04-14T12:47:53.721Z,98.99
2023-04-14T12:48:55.708Z,100.00
2023-04-14T12:49:59.309Z,100.00
2023-04-14T12:51:17.291Z,100.00
2023-04-14T12:52:40.911Z,100.00
2023-04-14T12:53:47.710Z,100.00
2023-04-14T12:54:52.126Z,100.00
2023-04-14T12:56:17.469Z,100.00
2023-04-14T12:57:20.909Z,100.00
2023-04-14T12:58:23.238Z,100.00
2023-04-14T12:59:24.777Z,100.00
2023-04-14T13:00:27.771Z,100.00
2023-04-14T13:01:29.619Z,100.00
2023-04-14T13:02:32.291Z,100.00
2023-04-14T13:03:50.463Z,100.00
2023-04-14T13:04:52.280Z,100.00
2023-04-14T13:05:54.971Z,100.00
2023-04-14T13:06:56.560Z,100.00
2023-04-14T13:07:58.042Z,100.00
2023-04-14T13:09:00.503Z,100.00
2023-04-14T13:10:02.727Z,100.00
2023-04-14T13:11:04.595Z,100.00
2023-04-14T13:12:06.237Z,100.00
2023-04-14T13:13:07.813Z,100.00
2023-04-14T13:14:09.394Z,100.00
2023-04-14T13:15:32.635Z,100.00
2023-04-14T13:16:33.479Z,100.00
2023-04-14T13:17:35.542Z,100.00
2023-04-14T13:18:37.174Z,99.65
2023-04-14T13:19:38.747Z,100.00
2023-04-14T13:20:40.552Z,99.57
2023-04-14T13:21:42.062Z,98.63
2023-04-14T13:22:43.574Z,98.18
2023-04-14T13:23:45.132Z,98.74
2023-04-14T13:24:46.805Z,98.29
2023-04-14T13:25:48.743Z,98.42
2023-04-14T13:26:51.843Z,96.54
2023-04-14T13:27:54.216Z,92.42
2023-04-14T13:28:55.781Z,95.75
2023-04-14T13:29:57.342Z,96.87
2023-04-14T13:30:59.066Z,95.84
2023-04-14T13:32:01.060Z,97.26
2023-04-14T13:33:02.765Z,97.87
2023-04-14T13:34:04.337Z,98.01
2023-04-14T13:35:06.427Z,99.00
2023-04-14T13:36:08.171Z,99.09
2023-04-14T13:37:09.711Z,99.68
2023-04-14T13:38:11.384Z,100.00
2023-04-14T13:39:12.933Z,100.00
2023-04-14T13:40:14.530Z,100.00
2023-04-14T13:41:18.698Z,100.00
2023-04-14T13:42:20.373Z,100.00
2023-04-14T13:43:23.241Z,100.00